sensor_id;sensor_type;location;lat;lon;timestamp;pressure;altitude;pressure_sealevel;temperature;humidity
65546;BME280;52177;55.968;37.498;2024-02-21T00:00:24;100557.25;;;-6.36;70.45
65546;BME280;52177;55.968;37.498;2024-02-21T00:00:54;100562.34;;;-6.34;70.21
65546;BME280;52177;55.968;37.498;2024-02-21T00:01:25;100558.09;;;-6.35;70.30
65546;BME280;52177;55.968;37.498;2024-02-21T00:01:55;100564.19;;;-6.37;70.27
65546;BME280;52177;55.968;37.498;2024-02-21T00:02:25;100559.00;;;-6.37;70.46
65546;BME280;52177;55.968;37.498;2024-02-21T00:02:56;100554.69;;;-6.38;70.37
65546;BME280;52177;55.968;37.498;2024-02-21T00:03:29;100560.72;;;-6.37;70.35
65546;BME280;52177;55.968;37.498;2024-02-21T00:03:59;100559.00;;;-6.37;70.46
65546;BME280;52177;55.968;37.498;2024-02-21T00:04:30;100554.66;;;-6.36;70.32
65546;BME280;52177;55.968;37.498;2024-02-21T00:05:00;100559.84;;;-6.36;70.32
65546;BME280;52177;55.968;37.498;2024-02-21T00:05:30;100565.03;;;-6.36;70.39
65546;BME280;52177;55.968;37.498;2024-02-21T00:06:01;100564.19;;;-6.37;70.24
65546;BME280;52177;55.968;37.498;2024-02-21T00:06:31;100559.88;;;-6.38;70.30
65546;BME280;52177;55.968;37.498;2024-02-21T00:07:02;100562.47;;;-6.38;70.46
65546;BME280;52177;55.968;37.498;2024-02-21T00:07:32;100556.44;;;-6.38;70.39
65546;BME280;52177;55.968;37.498;2024-02-21T00:08:03;100550.41;;;-6.39;70.48
65546;BME280;52177;55.968;37.498;2024-02-21T00:08:33;100552.16;;;-6.39;70.40
65546;BME280;52177;55.968;37.498;2024-02-21T00:09:04;100557.34;;;-6.39;70.28
65546;BME280;52177;55.968;37.498;2024-02-21T00:09:34;100556.53;;;-6.41;70.11
65546;BME280;52177;55.968;37.498;2024-02-21T00:10:05;100547.97;;;-6.43;70.25
65546;BME280;52177;55.968;37.498;2024-02-21T00:10:35;100558.34;;;-6.43;70.26
65546;BME280;52177;55.968;37.498;2024-02-21T00:11:06;100553.16;;;-6.43;70.46
65546;BME280;52177;55.968;37.498;2024-02-21T00:11:36;100547.13;;;-6.44;70.34
65546;BME280;52177;55.968;37.498;2024-02-21T00:12:07;100558.34;;;-6.43;70.25
65546;BME280;52177;55.968;37.498;2024-02-21T00:12:37;100556.59;;;-6.43;70.59
65546;BME280;52177;55.968;37.498;2024-02-21T00:13:08;100547.03;;;-6.42;70.36
65546;BME280;52177;55.968;37.498;2024-02-21T00:13:38;100553.94;;;-6.41;70.48
65546;BME280;52177;55.968;37.498;2024-02-21T00:14:08;100551.34;;;-6.41;70.42
65546;BME280;52177;55.968;37.498;2024-02-21T00:14:39;100553.94;;;-6.41;70.33
65546;BME280;52177;55.968;37.498;2024-02-21T00:15:10;100550.47;;;-6.42;70.31
65546;BME280;52177;55.968;37.498;2024-02-21T00:15:41;100554.81;;;-6.42;70.40
65546;BME280;52177;55.968;37.498;2024-02-21T00:16:11;100545.28;;;-6.42;70.34
65546;BME280;52177;55.968;37.498;2024-02-21T00:16:42;100549.63;;;-6.42;70.51
65546;BME280;52177;55.968;37.498;2024-02-21T00:17:12;100545.28;;;-6.42;70.31
65546;BME280;52177;55.968;37.498;2024-02-21T00:17:44;100553.94;;;-6.41;70.42
65546;BME280;52177;55.968;37.498;2024-02-21T00:18:14;100551.34;;;-6.41;70.39
65546;BME280;52177;55.968;37.498;2024-02-21T00:18:45;100548.75;;;-6.41;70.31
65546;BME280;52177;55.968;37.498;2024-02-21T00:19:15;100544.44;;;-6.42;70.27
65546;BME280;52177;55.968;37.498;2024-02-21T00:19:46;100544.44;;;-6.42;70.18
65546;BME280;52177;55.968;37.498;2024-02-21T00:20:16;100557.41;;;-6.42;70.18
65546;BME280;52177;55.968;37.498;2024-02-21T00:20:47;100553.06;;;-6.42;70.25
65546;BME280;52177;55.968;37.498;2024-02-21T00:21:18;100543.59;;;-6.43;70.23
65546;BME280;52177;55.968;37.498;2024-02-21T00:21:48;100545.38;;;-6.43;70.36
65546;BME280;52177;55.968;37.498;2024-02-21T00:22:18;100543.66;;;-6.44;70.25
65546;BME280;52177;55.968;37.498;2024-02-21T00:22:49;100547.97;;;-6.43;70.29
65546;BME280;52177;55.968;37.498;2024-02-21T00:23:19;100546.25;;;-6.44;70.22
65546;BME280;52177;55.968;37.498;2024-02-21T00:23:50;100550.59;;;-6.45;70.42
65546;BME280;52177;55.968;37.498;2024-02-21T00:24:20;100547.13;;;-6.44;70.19
65546;BME280;52177;55.968;37.498;2024-02-21T00:25:00;100548.84;;;-6.44;70.31
65546;BME280;52177;55.968;37.498;2024-02-21T00:25:39;100550.59;;;-6.45;70.17
65546;BME280;52177;55.968;37.498;2024-02-21T00:26:20;100550.59;;;-6.45;70.35
65546;BME280;52177;55.968;37.498;2024-02-21T00:26:51;100541.97;;;-6.45;70.53
65546;BME280;52177;55.968;37.498;2024-02-21T00:27:30;100547.16;;;-6.45;70.31
65546;BME280;52177;55.968;37.498;2024-02-21T00:28:02;100551.50;;;-6.46;70.32
65546;BME280;52177;55.968;37.498;2024-02-21T00:28:32;100548.03;;;-6.46;70.43
65546;BME280;52177;55.968;37.498;2024-02-21T00:29:08;100542.84;;;-6.46;70.46
65546;BME280;52177;55.968;37.498;2024-02-21T00:29:41;100544.59;;;-6.47;70.42
65546;BME280;52177;55.968;37.498;2024-02-21T00:30:12;100548.91;;;-6.46;70.31
65546;BME280;52177;55.968;37.498;2024-02-21T00:30:45;100546.31;;;-6.46;70.46
65546;BME280;52177;55.968;37.498;2024-02-21T00:31:17;100538.53;;;-6.46;70.30
65546;BME280;52177;55.968;37.498;2024-02-21T00:31:49;100541.13;;;-6.46;70.39
65546;BME280;52177;55.968;37.498;2024-02-21T00:32:19;100541.06;;;-6.44;70.31
65546;BME280;52177;55.968;37.498;2024-02-21T00:33:06;100545.41;;;-6.45;70.20
65546;BME280;52177;55.968;37.498;2024-02-21T00:33:40;100541.94;;;-6.44;70.32
65546;BME280;52177;55.968;37.498;2024-02-21T00:34:10;100541.00;;;-6.43;70.29
65546;BME280;52177;55.968;37.498;2024-02-21T00:34:43;100544.53;;;-6.44;70.28
65546;BME280;52177;55.968;37.498;2024-02-21T00:35:14;100543.59;;;-6.43;70.41
65546;BME280;52177;55.968;37.498;2024-02-21T00:35:44;100544.44;;;-6.42;70.23
65546;BME280;52177;55.968;37.498;2024-02-21T00:36:15;100537.50;;;-6.42;70.21
65546;BME280;52177;55.968;37.498;2024-02-21T00:36:45;100536.63;;;-6.41;70.26
65546;BME280;52177;55.968;37.498;2024-02-21T00:37:16;100542.66;;;-6.40;70.14
65546;BME280;52177;55.968;37.498;2024-02-21T00:37:46;100537.50;;;-6.42;70.11
65546;BME280;52177;55.968;37.498;2024-02-21T00:38:16;100541.81;;;-6.41;70.09
65546;BME280;52177;55.968;37.498;2024-02-21T00:38:47;100534.03;;;-6.41;70.00
65546;BME280;52177;55.968;37.498;2024-02-21T00:39:17;100538.31;;;-6.40;70.17
65546;BME280;52177;55.968;37.498;2024-02-21T00:39:47;100534.88;;;-6.40;70.14
65546;BME280;52177;55.968;37.498;2024-02-21T00:40:18;100537.44;;;-6.39;70.12
65546;BME280;52177;55.968;37.498;2024-02-21T00:40:50;100531.41;;;-6.39;70.13
65546;BME280;52177;55.968;37.498;2024-02-21T00:41:20;100535.72;;;-6.40;70.09
65546;BME280;52177;55.968;37.498;2024-02-21T00:41:51;100539.22;;;-6.41;70.18
65546;BME280;52177;55.968;37.498;2024-02-21T00:42:22;100531.44;;;-6.41;70.21
65546;BME280;52177;55.968;37.498;2024-02-21T00:42:55;100534.03;;;-6.41;70.21
65546;BME280;52177;55.968;37.498;2024-02-21T00:43:25;100534.00;;;-6.39;70.15
65546;BME280;52177;55.968;37.498;2024-02-21T00:43:56;100528.81;;;-6.39;69.95
65546;BME280;52177;55.968;37.498;2024-02-21T00:44:26;100528.84;;;-6.41;69.91
65546;BME280;52177;55.968;37.498;2024-02-21T00:44:58;100532.41;;;-6.43;70.08
65546;BME280;52177;55.968;37.498;2024-02-21T00:45:28;100522.06;;;-6.45;70.12
65546;BME280;52177;55.968;37.498;2024-02-21T00:46:01;100523.81;;;-6.45;70.11
65546;BME280;52177;55.968;37.498;2024-02-21T00:46:32;100520.41;;;-6.47;70.12
65546;BME280;52177;55.968;37.498;2024-02-21T00:47:02;100525.59;;;-6.47;70.08
65546;BME280;52177;55.968;37.498;2024-02-21T00:47:33;100523.91;;;-6.48;70.04
65546;BME280;52177;55.968;37.498;2024-02-21T00:48:04;100525.59;;;-6.47;70.10
65546;BME280;52177;55.968;37.498;2024-02-21T00:48:34;100529.19;;;-6.51;70.21
65546;BME280;52177;55.968;37.498;2024-02-21T00:49:08;100525.75;;;-6.52;70.13
65546;BME280;52177;55.968;37.498;2024-02-21T00:49:38;100521.47;;;-6.53;70.07
65546;BME280;52177;55.968;37.498;2024-02-21T00:50:09;100519.84;;;-6.57;70.07
65546;BME280;52177;55.968;37.498;2024-02-21T00:50:39;100522.44;;;-6.57;69.99
65546;BME280;52177;55.968;37.498;2024-02-21T00:51:13;100514.66;;;-6.57;70.20
65546;BME280;52177;55.968;37.498;2024-02-21T00:51:43;100519.84;;;-6.57;70.05
65546;BME280;52177;55.968;37.498;2024-02-21T00:52:14;100510.44;;;-6.60;69.99
65546;BME280;52177;55.968;37.498;2024-02-21T00:52:44;100509.59;;;-6.60;70.17
65546;BME280;52177;55.968;37.498;2024-02-21T00:53:14;100510.50;;;-6.63;70.28
65546;BME280;52177;55.968;37.498;2024-02-21T00:53:48;100509.66;;;-6.63;70.09
65546;BME280;52177;55.968;37.498;2024-02-21T00:54:20;100511.44;;;-6.65;70.35
65546;BME280;52177;55.968;37.498;2024-02-21T00:54:51;100508.84;;;-6.65;70.28
65546;BME280;52177;55.968;37.498;2024-02-21T00:55:21;100508.00;;;-6.66;70.19
65546;BME280;52177;55.968;37.498;2024-02-21T00:55:52;100508.94;;;-6.67;70.31
65546;BME280;52177;55.968;37.498;2024-02-21T00:56:22;100503.75;;;-6.67;70.48
65546;BME280;52177;55.968;37.498;2024-02-21T00:56:52;100505.47;;;-6.67;70.23
65546;BME280;52177;55.968;37.498;2024-02-21T00:57:23;100504.63;;;-6.68;70.38
65546;BME280;52177;55.968;37.498;2024-02-21T00:57:53;100511.53;;;-6.67;70.46
65546;BME280;52177;55.968;37.498;2024-02-21T00:58:24;100507.22;;;-6.68;70.33
65546;BME280;52177;55.968;37.498;2024-02-21T00:58:54;100507.28;;;-6.69;70.19
65546;BME280;52177;55.968;37.498;2024-02-21T00:59:24;100505.47;;;-6.67;70.44
65546;BME280;52177;55.968;37.498;2024-02-21T00:59:55;100509.88;;;-6.69;70.27
65546;BME280;52177;55.968;37.498;2024-02-21T01:00:28;100512.47;;;-6.69;70.26
65546;BME280;52177;55.968;37.498;2024-02-21T01:01:00;100504.72;;;-6.71;70.34
65546;BME280;52177;55.968;37.498;2024-02-21T01:01:31;100504.72;;;-6.71;70.31
65546;BME280;52177;55.968;37.498;2024-02-21T01:02:01;100497.78;;;-6.70;70.35
65546;BME280;52177;55.968;37.498;2024-02-21T01:02:31;100502.16;;;-6.72;70.13
65546;BME280;52177;55.968;37.498;2024-02-21T01:03:02;100505.63;;;-6.72;70.40
65546;BME280;52177;55.968;37.498;2024-02-21T01:03:32;100504.72;;;-6.71;70.29
65546;BME280;52177;55.968;37.498;2024-02-21T01:04:03;100501.28;;;-6.71;70.35
65546;BME280;52177;55.968;37.498;2024-02-21T01:04:34;100503.88;;;-6.71;70.51
65546;BME280;52177;55.968;37.498;2024-02-21T01:05:05;100497.84;;;-6.72;70.42
65546;BME280;52177;55.968;37.498;2024-02-21T01:05:35;100501.31;;;-6.73;70.37
65546;BME280;52177;55.968;37.498;2024-02-21T01:06:05;100500.47;;;-6.73;70.40
65546;BME280;52177;55.968;37.498;2024-02-21T01:06:36;100495.25;;;-6.72;70.44
65546;BME280;52177;55.968;37.498;2024-02-21T01:07:07;100499.56;;;-6.72;70.32
65546;BME280;52177;55.968;37.498;2024-02-21T01:07:37;100501.28;;;-6.71;70.44
65546;BME280;52177;55.968;37.498;2024-02-21T01:08:07;100503.06;;;-6.73;70.38
65546;BME280;52177;55.968;37.498;2024-02-21T01:08:38;100499.63;;;-6.74;70.43
65546;BME280;52177;55.968;37.498;2024-02-21T01:09:08;100491.00;;;-6.74;70.43
65546;BME280;52177;55.968;37.498;2024-02-21T01:09:38;100492.75;;;-6.75;70.19
65546;BME280;52177;55.968;37.498;2024-02-21T01:10:12;100501.47;;;-6.77;70.29
65546;BME280;52177;55.968;37.498;2024-02-21T01:10:42;100500.63;;;-6.78;70.53
65546;BME280;52177;55.968;37.498;2024-02-21T01:11:14;100500.63;;;-6.78;70.55
65546;BME280;52177;55.968;37.498;2024-02-21T01:11:44;100497.19;;;-6.78;70.54
65546;BME280;52177;55.968;37.498;2024-02-21T01:12:14;100502.31;;;-6.77;70.57
65546;BME280;52177;55.968;37.498;2024-02-21T01:12:45;100493.69;;;-6.77;70.61
65546;BME280;52177;55.968;37.498;2024-02-21T01:13:15;100495.44;;;-6.78;70.56
65546;BME280;52177;55.968;37.498;2024-02-21T01:13:46;100494.59;;;-6.78;70.54
65546;BME280;52177;55.968;37.498;2024-02-21T01:14:16;100494.63;;;-6.80;70.77
65546;BME280;52177;55.968;37.498;2024-02-21T01:14:46;100493.72;;;-6.79;70.68
65546;BME280;52177;55.968;37.498;2024-02-21T01:15:17;100498.06;;;-6.80;70.70
65546;BME280;52177;55.968;37.498;2024-02-21T01:15:47;100500.63;;;-6.78;70.58
65546;BME280;52177;55.968;37.498;2024-02-21T01:16:20;100489.41;;;-6.78;70.57
65546;BME280;52177;55.968;37.498;2024-02-21T01:16:51;100492.03;;;-6.80;70.50
65546;BME280;52177;55.968;37.498;2024-02-21T01:17:21;100491.19;;;-6.81;70.59
65546;BME280;52177;55.968;37.498;2024-02-21T01:17:52;100487.81;;;-6.83;70.65
65546;BME280;52177;55.968;37.498;2024-02-21T01:18:24;100488.69;;;-6.84;70.86
65546;BME280;52177;55.968;37.498;2024-02-21T01:18:55;100488.66;;;-6.82;70.67
65546;BME280;52177;55.968;37.498;2024-02-21T01:19:25;100492.06;;;-6.82;70.79
65546;BME280;52177;55.968;37.498;2024-02-21T01:19:56;100493.81;;;-6.82;70.81
65546;BME280;52177;55.968;37.498;2024-02-21T01:20:26;100490.34;;;-6.81;70.66
65546;BME280;52177;55.968;37.498;2024-02-21T01:20:59;100488.59;;;-6.81;70.78
65546;BME280;52177;55.968;37.498;2024-02-21T01:21:29;100491.13;;;-6.79;71.01
65546;BME280;52177;55.968;37.498;2024-02-21T01:22:00;100485.09;;;-6.80;70.86
65546;BME280;52177;55.968;37.498;2024-02-21T01:22:30;100488.50;;;-6.77;70.77
65546;BME280;52177;55.968;37.498;2024-02-21T01:23:00;100486.75;;;-6.77;70.88
65546;BME280;52177;55.968;37.498;2024-02-21T01:23:31;100484.13;;;-6.75;70.74
65546;BME280;52177;55.968;37.498;2024-02-21T01:24:01;100493.66;;;-6.76;70.76
65546;BME280;52177;55.968;37.498;2024-02-21T01:24:31;100488.53;;;-6.79;70.58
65546;BME280;52177;55.968;37.498;2024-02-21T01:25:02;100490.28;;;-6.80;70.58
65546;BME280;52177;55.968;37.498;2024-02-21T01:25:32;100492.88;;;-6.80;70.66
65546;BME280;52177;55.968;37.498;2024-02-21T01:26:03;100489.41;;;-6.78;70.58
65546;BME280;52177;55.968;37.498;2024-02-21T01:26:34;100488.53;;;-6.79;70.67
65546;BME280;52177;55.968;37.498;2024-02-21T01:27:04;100490.25;;;-6.78;70.57
65546;BME280;52177;55.968;37.498;2024-02-21T01:27:34;100491.09;;;-6.77;70.56
65546;BME280;52177;55.968;37.498;2024-02-21T01:28:05;100487.63;;;-6.76;70.70
65546;BME280;52177;55.968;37.498;2024-02-21T01:28:35;100484.16;;;-6.77;70.31
65546;BME280;52177;55.968;37.498;2024-02-21T01:29:08;100486.75;;;-6.77;70.41
65546;BME280;52177;55.968;37.498;2024-02-21T01:29:38;100488.53;;;-6.79;70.53
65546;BME280;52177;55.968;37.498;2024-02-21T01:30:09;100489.34;;;-6.77;70.45
65546;BME280;52177;55.968;37.498;2024-02-21T01:30:40;100485.91;;;-6.77;70.53
65546;BME280;52177;55.968;37.498;2024-02-21T01:31:11;100485.91;;;-6.77;70.53
65546;BME280;52177;55.968;37.498;2024-02-21T01:31:43;100485.94;;;-6.79;70.66
65546;BME280;52177;55.968;37.498;2024-02-21T01:32:13;100485.94;;;-6.79;70.50
65546;BME280;52177;55.968;37.498;2024-02-21T01:32:43;100484.22;;;-6.78;70.58
65546;BME280;52177;55.968;37.498;2024-02-21T01:33:14;100481.66;;;-6.80;70.51
65546;BME280;52177;55.968;37.498;2024-02-21T01:33:44;100486.00;;;-6.81;70.63
65546;BME280;52177;55.968;37.498;2024-02-21T01:34:15;100488.59;;;-6.81;70.53
65546;BME280;52177;55.968;37.498;2024-02-21T01:34:45;100480.84;;;-6.81;70.63
65546;BME280;52177;55.968;37.498;2024-02-21T01:35:15;100485.09;;;-6.80;70.53
65546;BME280;52177;55.968;37.498;2024-02-21T01:35:49;100487.78;;;-6.81;70.75
65546;BME280;52177;55.968;37.498;2024-02-21T01:36:20;100483.41;;;-6.81;70.77
65546;BME280;52177;55.968;37.498;2024-02-21T01:36:50;100483.34;;;-6.79;70.83
65546;BME280;52177;55.968;37.498;2024-02-21T01:37:20;100481.66;;;-6.80;70.85
65546;BME280;52177;55.968;37.498;2024-02-21T01:37:51;100484.22;;;-6.78;70.85
65546;BME280;52177;55.968;37.498;2024-02-21T01:38:22;100487.66;;;-6.78;70.67
65546;BME280;52177;55.968;37.498;2024-02-21T01:38:52;100485.06;;;-6.78;70.69
65546;BME280;52177;55.968;37.498;2024-02-21T01:39:22;100486.75;;;-6.77;70.69
65546;BME280;52177;55.968;37.498;2024-02-21T01:39:53;100491.94;;;-6.77;70.75
65546;BME280;52177;55.968;37.498;2024-02-21T01:40:23;100484.13;;;-6.75;70.81
65546;BME280;52177;55.968;37.498;2024-02-21T01:40:53;100484.13;;;-6.75;70.42
65546;BME280;52177;55.968;37.498;2024-02-21T01:41:24;100487.53;;;-6.73;70.63
65546;BME280;52177;55.968;37.498;2024-02-21T01:41:55;100472.81;;;-6.73;70.45
65546;BME280;52177;55.968;37.498;2024-02-21T01:42:25;100484.03;;;-6.72;70.70
65546;BME280;52177;55.968;37.498;2024-02-21T01:42:55;100478.84;;;-6.72;70.50
65546;BME280;52177;55.968;37.498;2024-02-21T01:43:26;100483.13;;;-6.71;70.62
65546;BME280;52177;55.968;37.498;2024-02-21T01:43:57;100483.13;;;-6.71;70.44
65546;BME280;52177;55.968;37.498;2024-02-21T01:44:31;100487.47;;;-6.72;70.49
65546;BME280;52177;55.968;37.498;2024-02-21T01:45:02;100484.03;;;-6.72;70.45
65546;BME280;52177;55.968;37.498;2024-02-21T01:45:32;100482.34;;;-6.73;70.47
65546;BME280;52177;55.968;37.498;2024-02-21T01:46:02;100486.69;;;-6.74;70.46
65546;BME280;52177;55.968;37.498;2024-02-21T01:46:33;100485.78;;;-6.73;70.39
65546;BME280;52177;55.968;37.498;2024-02-21T01:47:05;100484.03;;;-6.72;70.32
65546;BME280;52177;55.968;37.498;2024-02-21T01:47:39;100484.03;;;-6.72;70.57
65546;BME280;52177;55.968;37.498;2024-02-21T01:48:10;100479.75;;;-6.73;70.41
65546;BME280;52177;55.968;37.498;2024-02-21T01:48:41;100484.94;;;-6.73;70.51
65546;BME280;52177;55.968;37.498;2024-02-21T01:49:11;100478.84;;;-6.72;70.55
65546;BME280;52177;55.968;37.498;2024-02-21T01:49:43;100485.72;;;-6.71;70.52
65546;BME280;52177;55.968;37.498;2024-02-21T01:50:14;100481.38;;;-6.71;70.50
65546;BME280;52177;55.968;37.498;2024-02-21T01:50:54;100479.63;;;-6.70;70.49
65546;BME280;52177;55.968;37.498;2024-02-21T01:51:30;100489.13;;;-6.69;70.42
65546;BME280;52177;55.968;37.498;2024-02-21T01:52:01;100481.34;;;-6.69;70.39
65546;BME280;52177;55.968;37.498;2024-02-21T01:52:33;100483.06;;;-6.70;70.39
65546;BME280;52177;55.968;37.498;2024-02-21T01:53:05;100481.38;;;-6.71;70.45
65546;BME280;52177;55.968;37.498;2024-02-21T01:53:42;100485.66;;;-6.70;70.26
65546;BME280;52177;55.968;37.498;2024-02-21T01:54:17;100477.03;;;-6.70;70.27
65546;BME280;52177;55.968;37.498;2024-02-21T01:54:49;100477.13;;;-6.72;70.45
65546;BME280;52177;55.968;37.498;2024-02-21T01:55:19;100474.53;;;-6.72;70.26
65546;BME280;52177;55.968;37.498;2024-02-21T01:55:51;100478.84;;;-6.72;70.37
65546;BME280;52177;55.968;37.498;2024-02-21T01:56:22;100471.13;;;-6.74;70.36
65546;BME280;52177;55.968;37.498;2024-02-21T01:56:52;100473.72;;;-6.74;70.25
65546;BME280;52177;55.968;37.498;2024-02-21T01:57:26;100474.59;;;-6.75;70.26
65546;BME280;52177;55.968;37.498;2024-02-21T01:57:56;100470.25;;;-6.74;70.43
65546;BME280;52177;55.968;37.498;2024-02-21T01:58:28;100469.38;;;-6.73;70.27
65546;BME280;52177;55.968;37.498;2024-02-21T01:59:00;100472.84;;;-6.74;70.36
65546;BME280;52177;55.968;37.498;2024-02-21T01:59:30;100466.00;;;-6.77;70.48
65546;BME280;52177;55.968;37.498;2024-02-21T02:00:01;100472.91;;;-6.76;70.51
65546;BME280;52177;55.968;37.498;2024-02-21T02:00:32;100477.19;;;-6.75;70.56
65546;BME280;52177;55.968;37.498;2024-02-21T02:01:03;100470.31;;;-6.76;70.60
65546;BME280;52177;55.968;37.498;2024-02-21T02:01:33;100471.16;;;-6.75;70.54
65546;BME280;52177;55.968;37.498;2024-02-21T02:02:04;100470.31;;;-6.76;70.61
65546;BME280;52177;55.968;37.498;2024-02-21T02:02:37;100458.19;;;-6.75;70.55
65546;BME280;52177;55.968;37.498;2024-02-21T02:03:10;100470.31;;;-6.76;70.63
65546;BME280;52177;55.968;37.498;2024-02-21T02:03:46;100470.31;;;-6.76;70.71
65546;BME280;52177;55.968;37.498;2024-02-21T02:04:17;100472.06;;;-6.76;70.54
65546;BME280;52177;55.968;37.498;2024-02-21T02:04:47;100465.16;;;-6.77;70.70
65546;BME280;52177;55.968;37.498;2024-02-21T02:05:18;100471.19;;;-6.77;70.73
65546;BME280;52177;55.968;37.498;2024-02-21T02:05:51;100467.81;;;-6.79;70.71
65546;BME280;52177;55.968;37.498;2024-02-21T02:06:21;100466.94;;;-6.78;70.73
65546;BME280;52177;55.968;37.498;2024-02-21T02:06:54;100465.16;;;-6.77;70.80
65546;BME280;52177;55.968;37.498;2024-02-21T02:07:24;100466.09;;;-6.78;70.78
65546;BME280;52177;55.968;37.498;2024-02-21T02:07:58;100472.06;;;-6.76;70.83
65546;BME280;52177;55.968;37.498;2024-02-21T02:08:28;100464.34;;;-6.78;70.73
65546;BME280;52177;55.968;37.498;2024-02-21T02:08:59;100466.00;;;-6.77;70.64
65546;BME280;52177;55.968;37.498;2024-02-21T02:09:30;100472.06;;;-6.76;70.80
65546;BME280;52177;55.968;37.498;2024-02-21T02:10:09;100470.34;;;-6.77;70.88
65546;BME280;52177;55.968;37.498;2024-02-21T02:10:41;100469.50;;;-6.78;70.70
65546;BME280;52177;55.968;37.498;2024-02-21T02:11:16;100472.94;;;-6.77;70.87
65546;BME280;52177;55.968;37.498;2024-02-21T02:11:47;100476.38;;;-6.77;70.81
65546;BME280;52177;55.968;37.498;2024-02-21T02:12:17;100469.47;;;-6.76;70.86
65546;BME280;52177;55.968;37.498;2024-02-21T02:12:47;100470.31;;;-6.76;70.97
65546;BME280;52177;55.968;37.498;2024-02-21T02:13:18;100470.25;;;-6.74;70.91
65546;BME280;52177;55.968;37.498;2024-02-21T02:13:48;100473.66;;;-6.72;70.99
65546;BME280;52177;55.968;37.498;2024-02-21T02:14:18;100469.34;;;-6.72;70.90
65546;BME280;52177;55.968;37.498;2024-02-21T02:15:02;100462.41;;;-6.71;70.95
65546;BME280;52177;55.968;37.498;2024-02-21T02:15:46;100474.44;;;-6.70;70.86
65546;BME280;52177;55.968;37.498;2024-02-21T02:16:17;100470.97;;;-6.69;70.74
65546;BME280;52177;55.968;37.498;2024-02-21T02:16:47;100472.69;;;-6.70;70.81
65546;BME280;52177;55.968;37.498;2024-02-21T02:17:18;100464.91;;;-6.70;70.67
65546;BME280;52177;55.968;37.498;2024-02-21T02:17:49;100475.38;;;-6.71;70.47
65546;BME280;52177;55.968;37.498;2024-02-21T02:18:20;100469.34;;;-6.72;70.49
65546;BME280;52177;55.968;37.498;2024-02-21T02:18:50;100471.94;;;-6.72;70.66
65546;BME280;52177;55.968;37.498;2024-02-21T02:19:21;100473.72;;;-6.74;70.55
65546;BME280;52177;55.968;37.498;2024-02-21T02:19:51;100471.97;;;-6.73;70.75
65546;BME280;52177;55.968;37.498;2024-02-21T02:20:21;100468.53;;;-6.74;70.76
65546;BME280;52177;55.968;37.498;2024-02-21T02:20:52;100474.56;;;-6.73;70.78
65546;BME280;52177;55.968;37.498;2024-02-21T02:21:39;100466.75;;;-6.72;70.94
65546;BME280;52177;55.968;37.498;2024-02-21T02:22:14;100467.59;;;-6.71;70.84
65546;BME280;52177;55.968;37.498;2024-02-21T02:22:46;100470.09;;;-6.70;70.81
65546;BME280;52177;55.968;37.498;2024-02-21T02:23:29;100477.88;;;-6.70;70.75
65546;BME280;52177;55.968;37.498;2024-02-21T02:23:59;100467.47;;;-6.68;70.72
65546;BME280;52177;55.968;37.498;2024-02-21T02:24:30;100467.47;;;-6.68;70.84
65546;BME280;52177;55.968;37.498;2024-02-21T02:25:00;100475.25;;;-6.68;70.78
65546;BME280;52177;55.968;37.498;2024-02-21T02:25:31;100471.75;;;-6.67;70.67
65546;BME280;52177;55.968;37.498;2024-02-21T02:26:02;100475.22;;;-6.67;70.72
65546;BME280;52177;55.968;37.498;2024-02-21T02:26:32;100471.72;;;-6.66;70.71
65546;BME280;52177;55.968;37.498;2024-02-21T02:27:02;100475.16;;;-6.65;70.71
65546;BME280;52177;55.968;37.498;2024-02-21T02:27:41;100476.88;;;-6.64;70.90
65546;BME280;52177;55.968;37.498;2024-02-21T02:28:12;100469.09;;;-6.64;70.70
65546;BME280;52177;55.968;37.498;2024-02-21T02:28:42;100462.16;;;-6.64;70.80
65546;BME280;52177;55.968;37.498;2024-02-21T02:29:12;100465.59;;;-6.63;70.73
65546;BME280;52177;55.968;37.498;2024-02-21T02:29:42;100466.41;;;-6.63;70.67
65546;BME280;52177;55.968;37.498;2024-02-21T02:30:13;100468.19;;;-6.63;70.74
65546;BME280;52177;55.968;37.498;2024-02-21T02:30:44;100471.69;;;-6.64;70.69
65546;BME280;52177;55.968;37.498;2024-02-21T02:31:17;100469.94;;;-6.64;70.85
65546;BME280;52177;55.968;37.498;2024-02-21T02:31:49;100460.41;;;-6.63;70.77
65546;BME280;52177;55.968;37.498;2024-02-21T02:32:19;100467.28;;;-6.62;70.74
65546;BME280;52177;55.968;37.498;2024-02-21T02:32:49;100468.13;;;-6.62;70.75
65546;BME280;52177;55.968;37.498;2024-02-21T02:33:20;100472.41;;;-6.61;70.65
65546;BME280;52177;55.968;37.498;2024-02-21T02:33:50;100465.50;;;-6.60;70.67
65546;BME280;52177;55.968;37.498;2024-02-21T02:34:20;100468.03;;;-6.59;70.72
65546;BME280;52177;55.968;37.498;2024-02-21T02:34:51;100468.84;;;-6.56;70.66
65546;BME280;52177;55.968;37.498;2024-02-21T02:35:21;100463.69;;;-6.58;70.84
65546;BME280;52177;55.968;37.498;2024-02-21T02:35:52;100464.56;;;-6.57;70.72
65546;BME280;52177;55.968;37.498;2024-02-21T02:36:22;100460.22;;;-6.57;70.57
65546;BME280;52177;55.968;37.498;2024-02-21T02:36:52;100461.06;;;-6.56;70.66
65546;BME280;52177;55.968;37.498;2024-02-21T02:37:24;100467.06;;;-6.56;70.41
65546;BME280;52177;55.968;37.498;2024-02-21T02:37:55;100470.59;;;-6.57;70.62
65546;BME280;52177;55.968;37.498;2024-02-21T02:38:26;100457.63;;;-6.57;70.68
65546;BME280;52177;55.968;37.498;2024-02-21T02:38:56;100457.63;;;-6.57;70.69
65546;BME280;52177;55.968;37.498;2024-02-21T02:39:26;100469.69;;;-6.56;70.78
65546;BME280;52177;55.968;37.498;2024-02-21T02:39:56;100462.75;;;-6.55;70.77
65546;BME280;52177;55.968;37.498;2024-02-21T02:40:27;100462.00;;;-6.59;70.83
65546;BME280;52177;55.968;37.498;2024-02-21T02:40:57;100465.44;;;-6.59;70.79
65546;BME280;52177;55.968;37.498;2024-02-21T02:41:28;100465.44;;;-6.59;70.65
65546;BME280;52177;55.968;37.498;2024-02-21T02:41:58;100465.44;;;-6.59;70.96